Time;durP1;ratioP1;P1;durP2;ratioP2;P2;SDS_P1;SDS_P2;PMS_P1;PMS_P2;Temp;Humidity;BMP_temperature;BMP_pressure;BME280_temperature;BME280_humidity;BME280_pressure;Samples;Min_cycle;Max_cycle;Signal;HPM_P1;HPM_P2
2022/04/26 03:37:12;;;;;;;10.25;3.83;;;;;;;12.73;58.12;94869.59;5080284;28;20039;-82
2022/04/26 03:39:39;;;;;;;14.48;3.88;;;;;;;13.11;57.79;94913.59;5078606;28;20036;-82
2022/04/26 03:42:05;;;;;;;21.27;4.38;;;;;;;12.78;57.82;94864.16;5071430;28;20028;-82
2022/04/26 03:44:31;;;;;;;19.75;4.65;;;;;;;12.74;57.65;94857.84;5086559;28;20040;-82
2022/04/26 03:46:57;;;;;;;14.52;3.63;;;;;;;13.40;57.60;94957.81;5075406;28;20085;-82
2022/04/26 03:49:23;;;;;;;17.40;3.72;;;;;;;12.79;57.41;94859.63;5084432;28;20036;-82
2022/04/26 03:51:48;;;;;;;16.00;3.80;;;;;;;13.39;57.34;94940.25;5076224;28;20044;-82
2022/04/26 03:54:14;;;;;;;31.02;5.53;;;;;;;13.59;57.35;94971.78;5092483;28;20093;-81
2022/04/26 03:56:39;;;;;;;24.85;5.90;;;;;;;13.65;57.08;94956.53;5094212;28;20036;-82
2022/04/26 03:59:05;;;;;;;20.65;5.55;;;;;;;13.65;57.24;94953.84;5095309;28;20024;-81
2022/04/26 04:01:30;;;;;;;23.67;4.28;;;;;;;13.01;57.26;94873.03;5100444;28;20021;-81
2022/04/26 04:03:56;;;;;;;26.38;4.88;;;;;;;13.60;56.90;94940.63;5083633;28;20027;-82
2022/04/26 04:06:21;;;;;;;22.50;5.07;;;;;;;13.27;57.10;94910.66;5086859;28;20029;-82
2022/04/26 04:08:47;;;;;;;19.90;4.93;;;;;;;13.71;56.95;94979.31;5073577;28;20024;-82
2022/04/26 04:11:12;;;;;;;34.60;5.60;;;;;;;13.31;57.08;94904.44;5062419;28;20067;-81
2022/04/26 04:13:38;;;;;;;37.58;6.07;;;;;;;13.17;56.80;94877.03;5060965;28;20423;-82
2022/04/26 04:16:03;;;;;;;33.78;7.35;;;;;;;13.84;56.97;94978.50;5061762;28;20033;-82
2022/04/26 04:21:13;;;;;;;40.67;6.72;;;;;;;12.19;56.92;94735.44;5069223;28;20043;-83
2022/04/26 04:23:40;;;;;;;23.60;6.88;;;;;;;13.65;56.53;94957.31;5065747;28;20402;-82
2022/04/26 04:26:05;;;;;;;28.30;7.47;;;;;;;14.10;55.68;94986.75;5080365;28;20122;-82
2022/04/26 04:28:33;;;;;;;37.33;6.90;;;;;;;14.19;55.48;94996.41;5072164;28;20028;-82
2022/04/26 04:30:58;;;;;;;26.88;6.05;;;;;;;14.14;55.83;94996.50;5072032;28;20031;-82
2022/04/26 04:33:24;;;;;;;25.52;6.20;;;;;;;13.21;54.76;94862.00;5057336;28;20035;-82
2022/04/26 04:35:50;;;;;;;22.65;6.78;;;;;;;13.19;54.63;94837.59;5067293;28;20033;-81
2022/04/26 04:38:15;;;;;;;29.88;5.88;;;;;;;14.14;53.70;94972.50;5068670;28;20047;-82
2022/04/26 04:40:40;;;;;;;29.08;5.78;;;;;;;13.34;54.01;94847.91;5064993;28;20043;-81
2022/04/26 04:43:06;;;;;;;24.00;5.78;;;;;;;13.93;53.58;94917.28;5065117;28;20035;-81
2022/04/26 04:45:34;;;;;;;22.00;6.05;;;;;;;13.72;53.22;94880.41;5059772;28;20033;-83
2022/04/26 04:47:59;;;;;;;31.05;6.20;;;;;;;14.57;53.44;95004.16;5064732;28;20036;-81
2022/04/26 04:50:25;;;;;;;27.98;5.97;;;;;;;13.81;52.67;94878.59;5066247;28;20455;-81
2022/04/26 04:52:50;;;;;;;25.85;4.53;;;;;;;14.26;52.33;94958.66;5070136;28;20032;-81
2022/04/26 04:55:19;;;;;;;19.73;5.18;;;;;;;14.69;52.41;95015.06;5068418;28;20078;-81
2022/04/26 04:57:45;;;;;;;26.75;5.40;;;;;;;14.81;52.06;95014.50;5059299;28;20121;-81
2022/04/26 05:00:14;;;;;;;26.45;4.45;;;;;;;14.83;51.31;95010.44;5062777;28;20622;-81
2022/04/26 05:02:39;;;;;;;30.63;5.80;;;;;;;14.32;50.87;94928.13;5064785;28;20120;-82
2022/04/26 05:05:06;;;;;;;15.43;3.58;;;;;;;14.23;50.30;94909.38;5061725;28;20363;-81
2022/04/26 05:07:31;;;;;;;19.27;4.57;;;;;;;13.96;50.07;94852.69;5062339;28;20032;-81
2022/04/26 05:09:57;;;;;;;18.33;3.95;;;;;;;14.25;49.56;94899.19;5077648;28;20039;-82
2022/04/26 05:12:22;;;;;;;15.10;3.75;;;;;;;15.18;49.55;95016.03;5065272;28;20039;-83
2022/04/26 05:14:48;;;;;;;21.73;5.00;;;;;;;14.34;48.90;94880.59;5064247;28;20132;-81
2022/04/26 05:17:13;;;;;;;18.60;3.22;;;;;;;15.18;48.89;94989.31;5089017;28;20071;-82
2022/04/26 05:19:38;;;;;;;14.02;3.67;;;;;;;15.27;48.91;95022.97;5065792;28;20039;-83
2022/04/26 05:22:08;;;;;;;10.60;3.20;;;;;;;15.00;47.63;94953.69;5067515;28;20882;-82
2022/04/26 05:27:40;;;;;;;15.18;4.30;;;;;;;14.99;47.78;94981.50;5059114;28;20044;-83
2022/04/26 05:30:06;;;;;;;15.45;3.30;;;;;;;14.70;47.33;94939.25;5059537;28;20043;-82
2022/04/26 05:32:32;;;;;;;8.65;2.42;;;;;;;14.53;46.92;94904.44;5055936;28;20029;-82
2022/04/26 05:34:59;;;;;;;16.13;3.70;;;;;;;15.14;46.96;94974.97;5058928;28;20033;-83
2022/04/26 05:37:32;;;;;;;16.10;3.85;;;;;;;14.66;47.87;94917.69;5056021;28;20059;-82
2022/04/26 05:40:02;;;;;;;16.65;4.45;;;;;;;15.38;47.74;95012.81;5061767;28;20032;-82
2022/04/26 05:42:35;;;;;;;11.00;2.83;;;;;;;14.78;47.38;94930.50;5064079;28;20044;-82
2022/04/26 05:45:00;;;;;;;14.50;3.80;;;;;;;14.45;47.63;94913.16;5052784;28;20127;-81
2022/04/26 05:47:26;;;;;;;13.68;3.17;;;;;;;14.28;47.77;94887.91;5053811;28;20035;-82
2022/04/26 05:49:52;;;;;;;18.60;4.40;;;;;;;15.01;48.06;95008.69;5063552;28;20525;-82
2022/04/26 05:52:18;;;;;;;19.25;4.30;;;;;;;14.80;47.86;94954.97;5049761;28;20032;-82
2022/04/26 05:54:44;;;;;;;19.33;4.30;;;;;;;15.01;48.20;94990.00;5051351;28;20161;-82
2022/04/26 05:57:09;;;;;;;25.38;5.25;;;;;;;14.45;47.28;94878.47;5054363;28;20492;-83
2022/04/26 05:59:35;;;;;;;19.67;4.80;;;;;;;15.01;47.23;94973.97;5051413;28;20032;-82
2022/04/26 06:02:00;;;;;;;13.07;4.57;;;;;;;15.27;47.16;95006.94;5041891;28;20032;-83
2022/04/26 06:04:26;;;;;;;22.83;4.53;;;;;;;14.25;47.15;94853.84;5053465;28;20032;-83
2022/04/26 06:06:52;;;;;;;16.10;3.33;;;;;;;15.34;46.67;95004.63;5053111;28;20028;-81
2022/04/26 06:09:26;;;;;;;13.50;3.63;;;;;;;14.79;46.91;94909.94;5032693;28;20033;-82
2022/04/26 06:11:52;;;;;;;25.23;4.25;;;;;;;12.45;46.73;94551.47;5032254;28;20040;-82
2022/04/26 06:14:17;;;;;;;11.55;3.53;;;;;;;13.46;46.20;94699.00;5067922;28;20053;-83
2022/04/26 06:16:43;;;;;;;16.48;3.38;;;;;;;15.35;46.03;94954.63;5043495;28;20572;-82
2022/04/26 06:21:44;;;;;;;30.77;3.97;;;;;;;15.96;46.29;95009.91;1443274;22;20876;-82
2022/04/26 06:24:10;;;;;;;23.27;4.18;;;;;;;15.77;45.88;94966.63;5051309;28;20067;-82
2022/04/26 06:26:35;;;;;;;14.00;3.00;;;;;;;15.94;45.33;94996.09;5049371;28;20032;-81
2022/04/26 06:29:01;;;;;;;10.38;3.30;;;;;;;15.29;45.72;94905.13;5049470;28;20576;-82
2022/04/26 06:31:26;;;;;;;13.27;3.00;;;;;;;15.80;45.60;94958.75;5070687;28;20297;-81
2022/04/26 06:33:51;;;;;;;12.77;3.13;;;;;;;16.22;45.42;94975.19;5059407;28;20035;-81
2022/04/26 06:36:17;;;;;;;14.27;3.20;;;;;;;15.46;45.83;94870.44;5074415;28;20058;-82
2022/04/26 06:38:42;;;;;;;15.52;3.58;;;;;;;16.23;45.41;94973.31;5061550;28;20096;-81
2022/04/26 06:41:08;;;;;;;14.80;3.55;;;;;;;16.15;45.77;94999.75;5043353;28;20071;-82
2022/04/26 06:43:33;;;;;;;11.80;2.58;;;;;;;16.19;45.43;94994.53;5040281;28;20083;-81
2022/04/26 06:46:00;;;;;;;16.52;2.97;;;;;;;15.63;45.25;94873.19;5040867;28;20042;-81
2022/04/26 06:48:26;;;;;;;14.15;3.42;;;;;;;15.85;44.95;94892.88;5047964;28;20057;-82
2022/04/26 06:50:53;;;;;;;16.33;3.22;;;;;;;16.49;44.52;94990.94;5042435;28;20821;-82
2022/04/26 06:53:18;;;;;;;10.32;2.30;;;;;;;15.58;43.38;94854.59;5063021;28;20055;-81
2022/04/26 06:55:44;;;;;;;10.00;1.95;;;;;;;16.56;43.16;94956.44;5038068;28;20040;-82
2022/04/26 06:58:09;;;;;;;14.02;2.10;;;;;;;16.24;42.61;94886.59;5042830;28;20603;-82
2022/04/26 07:00:35;;;;;;;13.77;3.33;;;;;;;16.69;42.36;94944.03;5060630;28;20104;-82
2022/04/26 07:03:00;;;;;;;20.02;1.98;;;;;;;16.33;42.48;94866.72;5063050;28;20036;-82
2022/04/26 07:05:26;;;;;;;16.65;3.15;;;;;;;16.62;42.98;94908.16;5044149;28;20044;-82
2022/04/26 07:07:55;;;;;;;12.95;2.83;;;;;;;17.17;42.70;94986.63;5043382;28;20356;-83
2022/04/26 07:10:22;;;;;;;10.15;1.70;;;;;;;17.30;42.28;94984.88;5045649;28;20059;-82
2022/04/26 07:12:48;;;;;;;9.65;2.13;;;;;;;16.63;42.36;94894.41;5046381;28;20032;-82
2022/04/26 07:15:13;;;;;;;6.30;2.38;;;;;;;17.08;42.57;94936.88;5061583;28;20508;-82
2022/04/26 07:17:43;;;;;;;17.70;2.80;;;;;;;17.50;42.64;94970.78;5028556;28;20036;-82
2022/04/26 07:20:09;;;;;;;5.38;2.53;;;;;;;17.25;42.35;94934.13;5049838;28;20108;-82
2022/04/26 07:22:38;;;;;;;18.00;4.03;;;;;;;17.63;42.79;94977.06;5061260;28;20176;-81
2022/04/26 07:25:08;;;;;;;14.70;3.45;;;;;;;16.85;42.36;94859.44;5043069;28;20532;-82
2022/04/26 07:27:33;;;;;;;13.10;3.28;;;;;;;17.36;43.00;94935.34;5040063;28;20147;-82
2022/04/26 07:29:59;;;;;;;14.25;2.55;;;;;;;17.35;42.46;94934.56;5066997;28;20036;-81
2022/04/26 07:35:23;;;;;;;12.20;2.15;;;;;;;17.22;41.77;94892.69;5023910;28;20509;-82
2022/04/26 07:37:48;;;;;;;9.40;1.67;;;;;;;17.29;41.43;94902.91;5070455;28;20032;-82
2022/04/26 07:40:14;;;;;;;10.73;2.05;;;;;;;17.09;41.49;94853.47;5052595;28;20433;-83
2022/04/26 07:42:39;;;;;;;10.77;2.20;;;;;;;17.50;41.84;94917.16;5048759;28;20481;-82
2022/04/26 07:45:06;;;;;;;5.70;1.85;;;;;;;16.85;40.98;94832.66;5065253;28;20039;-82
2022/04/26 07:47:32;;;;;;;6.53;1.63;;;;;;;17.91;40.06;94983.56;5034219;28;20068;-83
2022/04/26 07:49:58;;;;;;;13.68;1.65;;;;;;;17.88;40.10;94981.50;5064507;28;20578;-83
2022/04/26 07:52:26;;;;;;;11.48;2.25;;;;;;;17.46;40.40;94894.78;5060367;28;20049;-82
2022/04/26 07:54:52;;;;;;;6.78;1.73;;;;;;;17.44;40.89;94894.31;5063520;28;20036;-82
2022/04/26 07:57:18;;;;;;;13.50;2.10;;;;;;;17.96;40.64;94978.00;5061233;28;20040;-83
2022/04/26 07:59:43;;;;;;;7.82;1.70;;;;;;;18.03;40.86;94964.84;5059131;28;20036;-83
2022/04/26 08:02:10;;;;;;;13.15;2.15;;;;;;;17.85;40.75;94944.59;5047913;28;20040;-82
2022/04/26 08:04:36;;;;;;;9.32;1.98;;;;;;;18.18;40.58;94982.28;5063790;28;20269;-82
2022/04/26 08:07:03;;;;;;;12.52;3.67;;;;;;;17.61;42.33;94901.50;5053330;28;20032;-83
2022/04/26 08:09:29;;;;;;;10.35;2.10;;;;;;;17.89;40.89;94948.22;5069110;28;20047;-83
2022/04/26 08:11:58;;;;;;;10.02;1.77;;;;;;;17.43;40.33;94860.56;5051366;28;20044;-83
2022/04/26 08:14:24;;;;;;;11.05;2.38;;;;;;;18.17;40.59;94979.91;5048563;28;20040;-83
2022/04/26 08:16:49;;;;;;;10.05;2.35;;;;;;;17.86;41.03;94913.97;5046993;28;20433;-83
2022/04/26 08:19:15;;;;;;;7.78;2.42;;;;;;;17.79;40.93;94886.88;5050636;28;20454;-83
2022/04/26 08:21:40;;;;;;;10.98;3.15;;;;;;;18.26;40.58;94946.53;5048421;28;20032;-82
2022/04/26 08:29:34;;;;;;;14.80;2.97;;;;;;;18.25;42.75;94902.03;5059964;28;20043;-83
2022/04/26 08:32:00;;;;;;;13.50;1.77;;;;;;;18.26;43.75;94921.59;5051024;28;20039;-83
2022/04/26 08:34:26;;;;;;;15.27;2.72;;;;;;;18.55;42.97;94950.25;5064484;28;20457;-84
2022/04/26 08:36:51;;;;;;;10.98;2.60;;;;;;;18.42;44.41;94922.56;5048042;28;20028;-83
2022/04/26 08:39:17;;;;;;;14.40;3.67;;;;;;;18.46;43.05;94915.47;5048908;28;20039;-84
2022/04/26 08:41:42;;;;;;;13.80;2.95;;;;;;;18.64;43.03;94926.84;5045434;28;20037;-84
2022/04/26 08:44:11;;;;;;;14.65;3.17;;;;;;;19.01;43.62;94968.84;5046664;28;20344;-84
2022/04/26 08:52:07;;;;;;;16.35;3.83;;;;;;;18.58;42.86;94902.09;5064397;28;20696;-83
2022/04/26 08:54:33;;;;;;;11.98;2.10;;;;;;;18.98;44.38;94974.88;5058621;28;20036;-83
2022/04/26 08:57:13;;;;;;;11.65;2.60;;;;;;;18.87;45.79;94974.50;5070067;28;20112;-83
2022/04/26 08:59:53;;;;;;;20.40;3.35;;;;;;;18.53;43.53;94896.91;5047692;28;20075;-83
2022/04/26 09:02:21;;;;;;;15.05;3.60;;;;;;;19.06;43.79;94968.66;5051552;28;20060;-83
2022/04/26 09:04:49;;;;;;;20.85;3.92;;;;;;;19.00;44.46;94947.66;5065709;28;20051;-83
2022/04/26 09:07:37;;;;;;;23.45;4.70;;;;;;;18.82;44.84;94896.81;5068692;28;20056;-83
2022/04/26 09:10:12;;;;;;;23.55;4.35;;;;;;;19.28;44.26;94952.13;5070533;28;20249;-83
2022/04/26 09:13:09;;;;;;;26.70;3.75;;;;;;;19.02;43.84;94938.16;5059992;28;20032;-83
2022/04/26 09:15:57;;;;;;;20.90;3.33;;;;;;;19.25;43.38;94958.16;5026261;28;20051;-82
2022/04/26 09:18:30;;;;;;;20.58;3.10;;;;;;;19.25;43.28;94952.00;5049664;28;20040;-82
2022/04/26 09:21:16;;;;;;;30.48;4.30;;;;;;;19.33;44.02;94961.88;5061695;28;20032;-83
2022/04/26 09:23:45;;;;;;;27.58;3.50;;;;;;;19.07;46.00;94908.38;5061132;28;20065;-83
2022/04/26 09:26:13;;;;;;;21.85;3.83;;;;;;;19.10;44.79;94896.19;5044892;28;20024;-83
2022/04/26 09:28:43;;;;;;;12.43;3.00;;;;;;;19.30;43.53;94918.75;5059804;28;20035;-83
2022/04/26 09:31:24;;;;;;;18.90;3.58;;;;;;;19.54;42.91;94953.72;5060742;28;20153;-83
2022/04/26 09:33:57;;;;;;;18.75;3.00;;;;;;;19.17;42.53;94893.72;5045425;28;20032;-84
2022/04/26 09:36:25;;;;;;;22.20;3.47;;;;;;;18.87;42.52;94853.59;5044818;28;20664;-85
2022/04/26 09:38:51;;;;;;;28.40;3.67;;;;;;;19.46;42.76;94951.91;5047053;28;20035;-85
2022/04/26 09:41:17;;;;;;;28.55;3.50;;;;;;;19.34;42.49;94898.91;5047822;28;21149;-84
2022/04/26 09:44:01;;;;;;;22.85;3.85;;;;;;;19.05;43.54;94848.81;5048447;28;20125;-83
2022/04/26 09:46:48;;;;;;;19.20;3.50;;;;;;;19.72;45.92;94936.25;5048718;28;20700;-86
2022/04/26 09:49:21;;;;;;;23.45;3.10;;;;;;;19.99;42.39;94940.94;5045611;28;20089;-84
2022/04/26 09:51:49;;;;;;;24.58;3.78;;;;;;;20.13;40.95;94859.06;5065643;28;20075;-87
2022/04/26 09:54:15;;;;;;;22.63;3.30;;;;;;;21.50;38.77;94926.69;5072782;28;20030;-87
2022/04/26 09:56:44;;;;;;;19.25;3.42;;;;;;;22.24;39.10;94926.88;5052126;28;20028;-86
2022/04/26 09:59:13;;;;;;;22.33;3.28;;;;;;;23.56;37.63;94917.47;5049316;28;20112;-85
2022/04/26 10:01:47;;;;;;;18.48;4.13;;;;;;;24.71;35.78;94929.59;5052755;28;20551;-86
2022/04/26 10:04:21;;;;;;;17.27;3.17;;;;;;;25.02;32.14;94841.63;5047481;28;20032;-84
2022/04/26 10:06:52;;;;;;;14.52;3.05;;;;;;;26.05;30.13;94870.38;5054980;28;20028;-83
2022/04/26 10:09:18;;;;;;;15.80;2.97;;;;;;;26.57;30.59;94908.31;5047750;28;20103;-82
2022/04/26 10:11:54;;;;;;;18.65;2.90;;;;;;;26.87;28.31;94822.56;5046206;28;20071;-83
2022/04/26 10:14:21;;;;;;;14.27;2.92;;;;;;;28.15;27.37;94876.31;5050706;28;20032;-82
2022/04/26 10:16:47;;;;;;;15.00;3.03;;;;;;;27.06;27.70;94717.25;5048148;28;20039;-82
2022/04/26 10:19:39;;;;;;;22.23;2.90;;;;;;;27.14;26.83;94626.28;5046504;28;20035;-83
2022/04/26 10:22:08;;;;;;;23.25;6.97;;;;;;;27.02;26.16;94653.88;5044496;28;20112;-83
2022/04/26 10:24:34;;;;;;;22.60;4.10;;;;;;;27.87;26.99;94744.38;5056573;28;20074;-83
2022/04/26 10:27:20;;;;;;;16.52;3.00;;;;;;;29.11;25.70;94904.84;5051385;28;20147;-85
2022/04/26 10:29:46;;;;;;;11.60;2.95;;;;;;;29.20;25.09;94881.78;5060389;28;20471;-84
2022/04/26 10:32:32;;;;;;;19.92;3.33;;;;;;;28.37;26.00;94824.09;5064899;28;20036;-84
2022/04/26 10:35:24;;;;;;;13.45;2.55;;;;;;;28.89;25.81;94897.94;5048316;28;20032;-83
2022/04/26 10:38:16;;;;;;;17.10;2.90;;;;;;;29.29;25.44;94882.91;5035894;28;20040;-84
2022/04/26 10:41:03;;;;;;;16.25;3.03;;;;;;;29.20;24.73;94884.50;5068422;28;20043;-84
2022/04/26 10:43:29;;;;;;;12.38;3.00;;;;;;;28.88;25.48;94844.53;5059774;28;20027;-83
2022/04/26 10:46:33;;;;;;;20.38;2.40;;;;;;;29.07;25.37;94889.63;5043430;28;20051;-83
2022/04/26 10:49:19;;;;;;;15.88;2.65;;;;;;;28.88;26.62;94800.06;4977491;28;20042;-83
2022/04/26 10:51:45;;;;;;;14.38;3.15;;;;;;;29.21;24.79;94793.22;4964359;28;20201;-83
2022/04/26 10:54:10;;;;;;;10.80;2.47;;;;;;;29.66;24.67;94838.53;5036475;28;20024;-83
2022/04/26 10:56:36;;;;;;;11.60;2.25;;;;;;;29.32;23.84;94793.91;5042008;28;20611;-82
2022/04/26 10:59:13;;;;;;;19.00;2.67;;;;;;;30.33;23.75;94874.63;5036182;28;20669;-82
2022/04/26 11:01:39;;;;;;;7.43;2.05;;;;;;;30.25;22.12;94808.28;5040552;28;20482;-83
2022/04/26 11:04:05;;;;;;;19.10;2.40;;;;;;;29.72;23.54;94850.59;5040197;28;20088;-83
2022/04/26 11:06:35;;;;;;;23.33;3.50;;;;;;;28.48;23.46;94771.41;5036570;28;20238;-83
2022/04/26 11:09:09;;;;;;;18.02;3.17;;;;;;;28.17;24.14;94775.84;5042387;28;20063;-83
2022/04/26 11:11:54;;;;;;;25.27;4.10;;;;;;;28.52;25.37;94871.16;5038181;28;20340;-82
2022/04/26 11:14:20;;;;;;;17.75;3.03;;;;;;;27.33;25.78;94737.44;5046961;28;20644;-82
2022/04/26 11:16:57;;;;;;;12.25;2.75;;;;;;;28.07;25.29;94872.81;5066655;28;20043;-82
2022/04/26 11:19:31;;;;;;;16.60;2.83;;;;;;;27.20;25.29;94780.63;5042463;28;20384;-82
2022/04/26 11:22:02;;;;;;;15.57;2.53;;;;;;;26.62;24.83;94756.47;5063852;28;20296;-82
2022/04/26 11:29:56;;;;;;;14.55;3.13;;;;;;;26.06;27.28;94838.53;5070101;28;20610;-81
2022/04/26 11:32:32;;;;;;;10.82;2.95;;;;;;;25.70;28.44;94864.72;5060923;28;20032;-81
2022/04/26 11:34:58;;;;;;;14.38;2.45;;;;;;;25.42;27.22;94802.00;5064192;28;20645;-81
2022/04/26 11:37:24;;;;;;;19.77;3.13;;;;;;;25.09;27.26;94801.00;5060092;28;20044;-82
2022/04/26 11:39:49;;;;;;;15.88;2.53;;;;;;;25.51;27.25;94851.34;5045653;28;20117;-81
2022/04/26 11:42:16;;;;;;;14.27;4.22;;;;;;;24.75;28.04;94765.00;5074149;28;20028;-81
2022/04/26 11:48:09;;;;;;;25.23;3.83;;;;;;;25.40;29.81;94853.97;5039914;28;20039;-81
2022/04/26 11:50:34;;;;;;;11.98;2.55;;;;;;;25.39;28.61;94828.00;5048386;28;20037;-81
2022/04/26 11:53:02;;;;;;;15.30;2.78;;;;;;;25.40;30.27;94820.63;5078513;28;20402;-82
2022/04/26 11:55:31;;;;;;;26.10;3.47;;;;;;;24.86;30.41;94755.03;5058834;28;20032;-82
2022/04/26 11:58:09;;;;;;;14.23;3.05;;;;;;;25.27;28.92;94839.13;5075139;28;20116;-81
2022/04/26 12:00:35;;;;;;;9.40;2.17;;;;;;;25.46;28.42;94781.09;5056003;28;20093;-81
2022/04/26 12:03:02;;;;;;;15.55;2.33;;;;;;;25.77;29.32;94794.16;5058190;28;20357;-81
2022/04/26 12:05:29;;;;;;;21.83;2.55;;;;;;;26.45;26.65;94812.34;5056764;28;20428;-81
2022/04/26 12:07:55;;;;;;;14.02;2.47;;;;;;;27.01;25.99;94827.25;5076886;28;20307;-81
2022/04/26 12:10:26;;;;;;;13.10;1.73;;;;;;;27.55;24.28;94828.09;5059453;28;20041;-81
2022/04/26 12:12:56;;;;;;;8.07;1.85;;;;;;;27.58;23.27;94797.38;5069913;28;20123;-81
2022/04/26 12:15:30;;;;;;;11.13;1.83;;;;;;;27.82;22.83;94750.25;5075813;28;20036;-81
2022/04/26 12:18:11;;;;;;;14.73;2.25;;;;;;;28.74;23.30;94822.75;5057159;28;20074;-80
2022/04/26 12:20:55;;;;;;;10.63;2.35;;;;;;;28.55;23.39;94771.38;5056205;28;20102;-81
2022/04/26 12:23:22;;;;;;;12.27;2.13;;;;;;;28.75;24.18;94762.34;5042886;28;20048;-81
2022/04/26 12:26:01;;;;;;;8.63;2.08;;;;;;;28.24;23.16;94710.38;5053037;28;20255;-81
2022/04/26 12:28:26;;;;;;;13.88;2.28;;;;;;;28.65;23.65;94793.16;5076961;28;20859;-81
2022/04/26 12:30:53;;;;;;;13.48;2.70;;;;;;;28.54;24.83;94756.19;5069419;28;20059;-82
2022/04/26 12:33:30;;;;;;;17.17;2.42;;;;;;;27.95;23.21;94715.94;5071251;28;20624;-81
2022/04/26 12:36:04;;;;;;;13.02;1.92;;;;;;;28.33;25.21;94757.06;5052827;28;20020;-81
2022/04/26 12:38:44;;;;;;;7.97;1.90;;;;;;;28.74;25.40;94818.06;5053001;28;20036;-81
2022/04/26 12:41:10;;;;;;;11.15;2.28;;;;;;;27.94;24.78;94725.28;5072606;28;20040;-81
2022/04/26 12:43:35;;;;;;;15.10;1.88;;;;;;;28.31;24.62;94828.38;5074336;28;20043;-81
2022/04/26 12:46:03;;;;;;;13.57;2.00;;;;;;;27.84;24.86;94846.00;5053714;28;20035;-81
2022/04/26 12:51:20;;;;;;;23.50;2.75;;;;;;;25.79;30.75;94804.59;5073256;28;20054;-82
2022/04/26 12:53:48;;;;;;;17.88;2.50;;;;;;;25.43;30.82;94800.84;5063861;28;20617;-82
2022/04/26 12:56:14;;;;;;;18.33;2.10;;;;;;;25.07;30.91;94759.88;5057241;28;20035;-81
2022/04/26 12:58:42;;;;;;;23.90;2.70;;;;;;;24.87;31.53;94782.94;5074463;28;20036;-82
2022/04/26 13:01:08;;;;;;;24.17;3.00;;;;;;;25.44;31.73;94799.69;5072656;28;20169;-86
2022/04/26 13:03:35;;;;;;;20.65;2.10;;;;;;;25.40;31.42;94837.69;5056259;28;20031;-83
2022/04/26 13:06:14;;;;;;;13.55;2.65;;;;;;;25.85;30.92;94838.44;5075166;28;20422;-84
2022/04/26 13:08:48;;;;;;;13.65;2.20;;;;;;;26.44;31.72;94848.06;5076718;28;20020;-83
2022/04/26 13:11:17;;;;;;;25.98;2.58;;;;;;;25.74;30.54;94763.09;5052564;28;20040;-83
2022/04/26 13:13:46;;;;;;;16.15;2.03;;;;;;;26.45;30.76;94831.38;5058191;28;20111;-83
2022/04/26 13:16:12;;;;;;;27.05;3.08;;;;;;;26.48;31.21;94837.97;5064880;28;20044;-83
2022/04/26 13:18:38;;;;;;;18.40;2.25;;;;;;;27.09;30.23;94863.44;5068632;28;20924;-82
2022/04/26 13:21:05;;;;;;;19.27;1.98;;;;;;;26.90;28.33;94782.94;5081982;28;20572;-83
2022/04/26 13:23:33;;;;;;;20.98;2.22;;;;;;;25.89;29.99;94741.41;5062691;28;20083;-83
2022/04/26 13:26:00;;;;;;;12.45;1.90;;;;;;;26.84;28.67;94847.06;5064469;28;20046;-83
2022/04/26 13:28:26;;;;;;;16.15;1.73;;;;;;;27.14;29.81;94858.41;5057122;28;20051;-83
2022/04/26 13:30:52;;;;;;;13.65;2.05;;;;;;;27.10;29.98;94852.16;5061654;28;20055;-84
2022/04/26 13:33:17;;;;;;;8.07;1.95;;;;;;;26.94;29.93;94859.91;5077605;28;20036;-83
2022/04/26 13:35:43;;;;;;;15.25;2.35;;;;;;;25.97;31.29;94800.84;5064239;28;20125;-84
2022/04/26 13:38:14;;;;;;;16.65;1.75;;;;;;;26.33;31.58;94820.84;5077873;28;20036;-84
2022/04/26 13:40:41;;;;;;;12.15;1.58;;;;;;;26.35;30.86;94820.47;5076213;28;20024;-83
2022/04/26 13:43:07;;;;;;;11.63;2.17;;;;;;;26.57;30.75;94843.84;5055242;28;20225;-83
2022/04/26 13:45:36;;;;;;;13.13;1.80;;;;;;;26.63;31.42;94842.31;5058249;28;20024;-83
2022/04/26 13:48:08;;;;;;;8.40;1.70;;;;;;;26.33;30.69;94841.78;5054563;28;20033;-83
2022/04/26 13:50:34;;;;;;;18.55;2.10;;;;;;;26.04;30.88;94751.97;5053291;28;20028;-84
2022/04/26 13:52:59;;;;;;;12.32;2.20;;;;;;;26.31;31.70;94782.41;5070841;28;20146;-83
2022/04/26 13:55:26;;;;;;;9.25;1.45;;;;;;;23.55;32.42;94425.25;5070369;28;20039;-84
2022/04/26 13:57:54;;;;;;;6.72;1.70;;;;;;;25.55;32.59;94773.41;5077324;28;20036;-83
2022/04/26 14:00:20;;;;;;;6.95;1.58;;;;;;;25.77;32.23;94753.41;5072389;28;20016;-84
2022/04/26 14:02:48;;;;;;;8.20;1.63;;;;;;;25.71;32.25;94814.66;5053986;28;20142;-85
2022/04/26 14:05:15;;;;;;;5.45;1.70;;;;;;;24.92;33.30;94793.47;5057810;28;20118;-85
2022/04/26 14:07:40;;;;;;;8.40;1.92;;;;;;;24.92;33.31;94834.16;5059851;28;20088;-85
2022/04/26 14:10:07;;;;;;;6.13;1.73;;;;;;;23.84;34.38;94714.84;5057499;28;20028;-84
2022/04/26 14:12:34;;;;;;;16.17;2.13;;;;;;;23.41;35.58;94718.91;5083242;28;20348;-83
2022/04/26 14:23:12;;;;;;;19.77;2.05;;;;;;;23.05;35.61;94752.72;5080247;28;20055;-83
2022/04/26 14:25:56;;;;;;;13.05;1.90;;;;;;;23.45;35.32;94817.13;5088948;28;20020;-83
2022/04/26 14:28:25;;;;;;;14.52;1.98;;;;;;;23.51;36.18;94925.88;5084396;28;20101;-83
2022/04/26 14:30:50;;;;;;;9.82;1.70;;;;;;;22.26;36.12;94832.78;5054226;28;20052;-84
2022/04/26 14:33:17;;;;;;;14.13;2.70;;;;;;;23.12;35.34;94914.34;5059014;28;20103;-84
2022/04/26 14:35:46;;;;;;;5.13;1.38;;;;;;;22.25;35.81;94823.09;5063323;28;20043;-83
2022/04/26 14:38:11;;;;;;;4.00;1.63;;;;;;;22.80;34.95;94913.00;5058574;28;20429;-86
2022/04/26 14:40:38;;;;;;;14.07;2.30;;;;;;;22.94;35.16;94945.72;5060302;28;20124;-84
2022/04/26 14:43:09;;;;;;;11.23;2.47;;;;;;;19.95;35.25;94565.19;5081146;28;20047;-84
2022/04/26 14:45:44;;;;;;;12.90;2.00;;;;;;;22.00;36.44;94965.69;5065750;28;20092;-84
2022/04/26 14:48:10;;;;;;;8.77;1.90;;;;;;;20.80;37.36;94839.38;5077929;28;20032;-82
2022/04/26 14:50:37;;;;;;;7.53;1.60;;;;;;;21.05;38.37;94961.34;5070041;28;20381;-83
2022/04/26 14:53:06;;;;;;;19.30;2.25;;;;;;;20.83;38.61;94975.38;5066762;28;20035;-82
2022/04/26 14:55:32;;;;;;;16.92;1.83;;;;;;;20.65;38.91;94991.81;5081928;28;20109;-83
2022/04/26 14:57:58;;;;;;;16.27;2.15;;;;;;;19.89;38.86;94911.03;5069131;28;20498;-83
2022/04/26 15:00:23;;;;;;;14.02;1.60;;;;;;;18.55;39.27;94738.13;5080545;28;20032;-82
2022/04/26 15:02:49;;;;;;;3.72;1.60;;;;;;;19.33;41.27;94969.94;5082296;28;20036;-85
2022/04/26 15:05:14;;;;;;;10.20;2.08;;;;;;;18.83;41.14;94846.56;5083521;28;20111;-84
2022/04/26 15:10:30;;;;;;;5.45;1.67;;;;;;;20.31;40.92;94960.75;5076947;28;20051;-84
2022/04/26 15:18:23;;;;;;;6.32;1.98;;;;;;;19.93;40.78;94875.03;5082774;28;20039;-83
2022/04/26 15:20:50;;;;;;;6.47;1.60;;;;;;;21.01;40.33;94982.00;5078140;28;20119;-82
2022/04/26 15:23:17;;;;;;;7.85;1.55;;;;;;;21.38;39.04;94934.06;5081867;28;20048;-83
2022/04/26 15:25:48;;;;;;;14.88;2.40;;;;;;;22.23;38.01;95000.94;5063087;28;20235;-83
2022/04/26 15:28:14;;;;;;;5.20;1.30;;;;;;;22.57;37.21;95012.91;5072859;28;20039;-83
2022/04/26 15:30:42;;;;;;;7.97;1.60;;;;;;;22.28;37.33;94936.59;5080414;28;20037;-84
2022/04/26 15:33:08;;;;;;;11.18;1.92;;;;;;;22.75;35.60;94959.22;5062160;28;20036;-84
2022/04/26 15:35:33;;;;;;;7.78;1.83;;;;;;;22.01;36.51;94874.66;5064324;28;20031;-84
2022/04/26 15:37:59;;;;;;;13.00;1.40;;;;;;;22.13;36.60;94899.63;5061208;28;20060;-84
2022/04/26 15:40:24;;;;;;;5.05;1.20;;;;;;;22.19;37.67;94943.38;5058016;28;20032;-84
2022/04/26 15:42:49;;;;;;;10.00;1.67;;;;;;;21.93;38.16;94976.28;5064031;28;20028;-84
2022/04/26 15:45:15;;;;;;;4.22;1.40;;;;;;;22.04;38.83;94998.19;5067429;28;20445;-84
2022/04/26 15:47:40;;;;;;;4.78;1.20;;;;;;;20.89;38.73;94850.00;5086698;28;20112;-84
2022/04/26 15:50:06;;;;;;;5.80;1.38;;;;;;;22.06;38.91;94996.69;5087357;28;20032;-85
2022/04/26 15:52:33;;;;;;;9.55;1.38;;;;;;;20.76;39.95;94887.00;5084961;28;20028;-84
2022/04/26 15:54:58;;;;;;;3.45;1.30;;;;;;;20.90;40.40;94914.34;5067039;28;20449;-85
2022/04/26 15:57:23;;;;;;;2.67;1.02;;;;;;;21.17;40.41;94958.59;5086278;28;20051;-84
2022/04/26 15:59:49;;;;;;;10.25;1.48;;;;;;;21.21;41.12;94986.44;5071647;28;20425;-84